sensor_id;sensor_type;location;lat;lon;timestamp;P1;P2;P0
68698;PMS7003;55680;48.850;2.310;2022-10-12T00:00:42;0.50;0.50;0.00
68698;PMS7003;55680;48.850;2.310;2022-10-12T00:03:07;0.00;0.00;0.00
68698;PMS7003;55680;48.850;2.310;2022-10-12T00:05:33;0.00;0.00;0.00
68698;PMS7003;55680;48.850;2.310;2022-10-12T00:07:58;0.25;0.25;0.00
68698;PMS7003;55680;48.850;2.310;2022-10-12T00:10:23;5.00;5.00;4.00
68698;PMS7003;55680;48.850;2.310;2022-10-12T00:12:48;6.00;4.00;3.00
68698;PMS7003;55680;48.850;2.310;2022-10-12T00:15:14;0.00;0.00;0.00
68698;PMS7003;55680;48.850;2.310;2022-10-12T00:17:39;0.00;0.00;0.00
68698;PMS7003;55680;48.850;2.310;2022-10-12T00:20:04;0.67;0.00;0.00
68698;PMS7003;55680;48.850;2.310;2022-10-12T00:22:30;0.00;0.00;0.00
68698;PMS7003;55680;48.850;2.310;2022-10-12T00:24:55;0.00;0.00;0.00
68698;PMS7003;55680;48.850;2.310;2022-10-12T00:27:20;0.00;0.00;0.00
68698;PMS7003;55680;48.850;2.310;2022-10-12T00:29:45;0.00;0.00;0.00
68698;PMS7003;55680;48.850;2.310;2022-10-12T00:32:11;4.00;3.00;2.00
68698;PMS7003;55680;48.850;2.310;2022-10-12T00:34:36;0.00;0.00;0.00
68698;PMS7003;55680;48.850;2.310;2022-10-12T00:37:01;2.00;0.00;0.00
68698;PMS7003;55680;48.850;2.310;2022-10-12T00:39:26;0.00;0.00;0.00
68698;PMS7003;55680;48.850;2.310;2022-10-12T00:41:52;1.00;0.00;0.00
68698;PMS7003;55680;48.850;2.310;2022-10-12T00:44:34;0.00;0.00;0.00
68698;PMS7003;55680;48.850;2.310;2022-10-12T00:47:00;0.00;0.00;0.00
68698;PMS7003;55680;48.850;2.310;2022-10-12T00:49:27;0.00;0.00;0.00
68698;PMS7003;55680;48.850;2.310;2022-10-12T00:51:54;2.00;0.00;0.00
68698;PMS7003;55680;48.850;2.310;2022-10-12T00:54:21;4.00;4.00;2.50
68698;PMS7003;55680;48.850;2.310;2022-10-12T00:56:48;0.00;0.00;0.00
68698;PMS7003;55680;48.850;2.310;2022-10-12T00:59:22;0.00;0.00;0.00
68698;PMS7003;55680;48.850;2.310;2022-10-12T01:01:50;0.00;0.00;0.00
68698;PMS7003;55680;48.850;2.310;2022-10-12T01:04:15;0.00;0.00;0.00
68698;PMS7003;55680;48.850;2.310;2022-10-12T01:06:40;0.00;0.00;0.00
68698;PMS7003;55680;48.850;2.310;2022-10-12T01:09:06;0.00;0.00;0.00
68698;PMS7003;55680;48.850;2.310;2022-10-12T01:11:31;0.00;0.00;0.00
68698;PMS7003;55680;48.850;2.310;2022-10-12T01:13:56;0.00;0.00;0.00
68698;PMS7003;55680;48.850;2.310;2022-10-12T01:16:28;3.00;0.00;0.00
68698;PMS7003;55680;48.850;2.310;2022-10-12T01:19:00;0.00;0.00;0.00
68698;PMS7003;55680;48.850;2.310;2022-10-12T01:21:30;0.00;0.00;0.00
68698;PMS7003;55680;48.850;2.310;2022-10-12T01:26:53;0.00;0.00;0.00
68698;PMS7003;55680;48.850;2.310;2022-10-12T01:29:21;0.00;0.00;0.00
68698;PMS7003;55680;48.850;2.310;2022-10-12T01:31:51;0.00;0.00;0.00
68698;PMS7003;55680;48.850;2.310;2022-10-12T01:34:26;0.00;0.00;0.00
68698;PMS7003;55680;48.850;2.310;2022-10-12T01:39:56;0.00;0.00;0.00
68698;PMS7003;55680;48.850;2.310;2022-10-12T01:42:26;0.00;0.00;0.00
68698;PMS7003;55680;48.850;2.310;2022-10-12T01:45:05;0.00;0.00;0.00
68698;PMS7003;55680;48.850;2.310;2022-10-12T01:47:31;0.00;0.00;0.00
68698;PMS7003;55680;48.850;2.310;2022-10-12T01:49:57;0.00;0.00;0.00
68698;PMS7003;55680;48.850;2.310;2022-10-12T01:52:29;4.50;3.75;2.00
68698;PMS7003;55680;48.850;2.310;2022-10-12T01:55:00;0.25;0.00;0.00
68698;PMS7003;55680;48.850;2.310;2022-10-12T01:57:30;0.00;0.00;0.00
68698;PMS7003;55680;48.850;2.310;2022-10-12T02:04:51;0.00;0.00;0.00
68698;PMS7003;55680;48.850;2.310;2022-10-12T02:07:25;2.25;2.25;1.00
68698;PMS7003;55680;48.850;2.310;2022-10-12T02:09:54;0.00;0.00;0.00
68698;PMS7003;55680;48.850;2.310;2022-10-12T02:12:22;0.00;0.00;0.00
68698;PMS7003;55680;48.850;2.310;2022-10-12T02:14:52;0.00;0.00;0.00
68698;PMS7003;55680;48.850;2.310;2022-10-12T02:17:19;0.00;0.00;0.00
68698;PMS7003;55680;48.850;2.310;2022-10-12T02:20:06;0.00;0.00;0.00
68698;PMS7003;55680;48.850;2.310;2022-10-12T02:22:31;0.00;0.00;0.00
68698;PMS7003;55680;48.850;2.310;2022-10-12T02:25:00;0.00;0.00;0.00
68698;PMS7003;55680;48.850;2.310;2022-10-12T02:27:26;4.25;2.75;1.75
68698;PMS7003;55680;48.850;2.310;2022-10-12T02:29:51;0.50;0.50;0.00
68698;PMS7003;55680;48.850;2.310;2022-10-12T02:32:21;0.00;0.00;0.00
68698;PMS7003;55680;48.850;2.310;2022-10-12T02:34:52;0.00;0.00;0.00
68698;PMS7003;55680;48.850;2.310;2022-10-12T02:42:15;0.00;0.00;0.00
68698;PMS7003;55680;48.850;2.310;2022-10-12T02:44:42;0.00;0.00;0.00
68698;PMS7003;55680;48.850;2.310;2022-10-12T02:47:07;0.00;0.00;0.00
68698;PMS7003;55680;48.850;2.310;2022-10-12T02:49:34;0.25;0.00;0.00
68698;PMS7003;55680;48.850;2.310;2022-10-12T02:52:00;0.00;0.00;0.00
68698;PMS7003;55680;48.850;2.310;2022-10-12T02:54:26;0.00;0.00;0.00
68698;PMS7003;55680;48.850;2.310;2022-10-12T02:56:51;0.00;0.00;0.00
68698;PMS7003;55680;48.850;2.310;2022-10-12T02:59:17;0.00;0.00;0.00
68698;PMS7003;55680;48.850;2.310;2022-10-12T03:01:43;0.00;0.00;0.00
68698;PMS7003;55680;48.850;2.310;2022-10-12T03:04:08;1.00;1.00;0.00
68698;PMS7003;55680;48.850;2.310;2022-10-12T03:06:34;0.00;0.00;0.00
68698;PMS7003;55680;48.850;2.310;2022-10-12T03:08:59;3.00;1.00;0.00
68698;PMS7003;55680;48.850;2.310;2022-10-12T03:11:25;0.00;0.00;0.00
68698;PMS7003;55680;48.850;2.310;2022-10-12T03:13:51;3.00;1.00;0.00
68698;PMS7003;55680;48.850;2.310;2022-10-12T03:16:16;1.00;0.00;0.00
68698;PMS7003;55680;48.850;2.310;2022-10-12T03:18:41;1.00;0.00;0.00
68698;PMS7003;55680;48.850;2.310;2022-10-12T03:21:07;0.00;0.00;0.00
68698;PMS7003;55680;48.850;2.310;2022-10-12T03:23:32;0.00;0.00;0.00
68698;PMS7003;55680;48.850;2.310;2022-10-12T03:25:57;4.00;0.00;0.00
68698;PMS7003;55680;48.850;2.310;2022-10-12T03:28:22;0.00;0.00;0.00
68698;PMS7003;55680;48.850;2.310;2022-10-12T03:30:48;1.00;1.00;0.00
68698;PMS7003;55680;48.850;2.310;2022-10-12T03:33:13;0.00;0.00;0.00
68698;PMS7003;55680;48.850;2.310;2022-10-12T03:35:38;0.00;0.00;0.00
68698;PMS7003;55680;48.850;2.310;2022-10-12T03:38:04;2.75;0.00;0.00
68698;PMS7003;55680;48.850;2.310;2022-10-12T03:40:29;0.00;0.00;0.00
68698;PMS7003;55680;48.850;2.310;2022-10-12T03:42:54;0.00;0.00;0.00
68698;PMS7003;55680;48.850;2.310;2022-10-12T03:45:19;0.00;0.00;0.00
68698;PMS7003;55680;48.850;2.310;2022-10-12T03:47:44;1.67;1.00;0.00
68698;PMS7003;55680;48.850;2.310;2022-10-12T03:50:10;0.00;0.00;0.00
68698;PMS7003;55680;48.850;2.310;2022-10-12T03:52:35;0.00;0.00;0.00
68698;PMS7003;55680;48.850;2.310;2022-10-12T03:55:00;0.00;0.00;0.00
68698;PMS7003;55680;48.850;2.310;2022-10-12T03:57:25;0.00;0.00;0.00
68698;PMS7003;55680;48.850;2.310;2022-10-12T03:59:51;0.00;0.00;0.00
68698;PMS7003;55680;48.850;2.310;2022-10-12T04:02:16;0.67;0.67;0.00
68698;PMS7003;55680;48.850;2.310;2022-10-12T04:04:41;6.00;3.75;3.00
68698;PMS7003;55680;48.850;2.310;2022-10-12T04:07:07;0.00;0.00;0.00
68698;PMS7003;55680;48.850;2.310;2022-10-12T04:09:32;0.00;0.00;0.00
68698;PMS7003;55680;48.850;2.310;2022-10-12T04:11:57;4.00;4.00;3.00
68698;PMS7003;55680;48.850;2.310;2022-10-12T04:14:22;6.00;5.00;4.00
68698;PMS7003;55680;48.850;2.310;2022-10-12T04:16:47;1.00;1.00;0.00
68698;PMS7003;55680;48.850;2.310;2022-10-12T04:19:13;1.00;1.00;0.00
68698;PMS7003;55680;48.850;2.310;2022-10-12T04:21:38;0.00;0.00;0.00
68698;PMS7003;55680;48.850;2.310;2022-10-12T04:24:03;0.00;0.00;0.00
68698;PMS7003;55680;48.850;2.310;2022-10-12T04:26:29;0.00;0.00;0.00
68698;PMS7003;55680;48.850;2.310;2022-10-12T04:28:54;0.00;0.00;0.00
68698;PMS7003;55680;48.850;2.310;2022-10-12T04:31:19;1.00;0.00;0.00
68698;PMS7003;55680;48.850;2.310;2022-10-12T04:33:44;0.00;0.00;0.00
68698;PMS7003;55680;48.850;2.310;2022-10-12T04:36:09;0.00;0.00;0.00
68698;PMS7003;55680;48.850;2.310;2022-10-12T04:38:35;0.00;0.00;0.00
68698;PMS7003;55680;48.850;2.310;2022-10-12T04:41:01;1.00;0.00;0.00
68698;PMS7003;55680;48.850;2.310;2022-10-12T04:43:26;9.67;5.33;5.00
68698;PMS7003;55680;48.850;2.310;2022-10-12T04:45:58;0.00;0.00;0.00
68698;PMS7003;55680;48.850;2.310;2022-10-12T04:48:24;0.00;0.00;0.00
68698;PMS7003;55680;48.850;2.310;2022-10-12T04:50:49;0.00;0.00;0.00
68698;PMS7003;55680;48.850;2.310;2022-10-12T04:53:14;1.00;1.00;0.25
68698;PMS7003;55680;48.850;2.310;2022-10-12T04:55:40;5.00;5.00;4.00
68698;PMS7003;55680;48.850;2.310;2022-10-12T04:58:05;0.25;0.00;0.00
68698;PMS7003;55680;48.850;2.310;2022-10-12T05:00:30;1.00;1.00;0.75
68698;PMS7003;55680;48.850;2.310;2022-10-12T05:02:56;0.00;0.00;0.00
68698;PMS7003;55680;48.850;2.310;2022-10-12T05:05:21;0.00;0.00;0.00
68698;PMS7003;55680;48.850;2.310;2022-10-12T05:07:46;0.00;0.00;0.00
68698;PMS7003;55680;48.850;2.310;2022-10-12T05:10:11;0.00;0.00;0.00
68698;PMS7003;55680;48.850;2.310;2022-10-12T05:12:37;0.00;0.00;0.00
68698;PMS7003;55680;48.850;2.310;2022-10-12T05:15:02;1.00;1.00;0.00
68698;PMS7003;55680;48.850;2.310;2022-10-12T05:17:27;1.00;1.00;0.33
68698;PMS7003;55680;48.850;2.310;2022-10-12T05:19:52;1.50;0.75;0.00
68698;PMS7003;55680;48.850;2.310;2022-10-12T05:22:18;0.33;0.00;0.00
68698;PMS7003;55680;48.850;2.310;2022-10-12T05:24:43;0.00;0.00;0.00
68698;PMS7003;55680;48.850;2.310;2022-10-12T05:27:08;6.00;5.00;3.00
68698;PMS7003;55680;48.850;2.310;2022-10-12T05:29:34;0.50;0.50;0.00
68698;PMS7003;55680;48.850;2.310;2022-10-12T05:31:59;0.00;0.00;0.00
68698;PMS7003;55680;48.850;2.310;2022-10-12T05:34:24;0.67;0.67;0.00
68698;PMS7003;55680;48.850;2.310;2022-10-12T05:36:49;0.00;0.00;0.00
68698;PMS7003;55680;48.850;2.310;2022-10-12T05:39:14;0.00;0.00;0.00
68698;PMS7003;55680;48.850;2.310;2022-10-12T05:41:40;1.00;1.00;0.00
68698;PMS7003;55680;48.850;2.310;2022-10-12T05:44:05;0.00;0.00;0.00
68698;PMS7003;55680;48.850;2.310;2022-10-12T05:46:30;0.25;0.00;0.00
68698;PMS7003;55680;48.850;2.310;2022-10-12T05:48:55;0.00;0.00;0.00
68698;PMS7003;55680;48.850;2.310;2022-10-12T05:51:21;0.00;0.00;0.00
68698;PMS7003;55680;48.850;2.310;2022-10-12T05:53:46;0.00;0.00;0.00
68698;PMS7003;55680;48.850;2.310;2022-10-12T05:56:11;0.00;0.00;0.00
68698;PMS7003;55680;48.850;2.310;2022-10-12T05:58:36;0.00;0.00;0.00
68698;PMS7003;55680;48.850;2.310;2022-10-12T06:01:05;0.75;0.00;0.00
68698;PMS7003;55680;48.850;2.310;2022-10-12T06:03:31;1.50;1.00;0.00
68698;PMS7003;55680;48.850;2.310;2022-10-12T06:05:56;0.33;0.33;0.00
68698;PMS7003;55680;48.850;2.310;2022-10-12T06:08:21;9.00;5.67;4.67
68698;PMS7003;55680;48.850;2.310;2022-10-12T06:10:48;0.00;0.00;0.00
68698;PMS7003;55680;48.850;2.310;2022-10-12T06:13:14;0.00;0.00;0.00
68698;PMS7003;55680;48.850;2.310;2022-10-12T06:15:43;0.75;0.00;0.00
68698;PMS7003;55680;48.850;2.310;2022-10-12T06:18:08;1.00;1.00;0.00
68698;PMS7003;55680;48.850;2.310;2022-10-12T06:20:33;0.00;0.00;0.00
68698;PMS7003;55680;48.850;2.310;2022-10-12T06:22:58;0.00;0.00;0.00
68698;PMS7003;55680;48.850;2.310;2022-10-12T06:25:23;0.00;0.00;0.00
68698;PMS7003;55680;48.850;2.310;2022-10-12T06:27:49;0.00;0.00;0.00
68698;PMS7003;55680;48.850;2.310;2022-10-12T06:30:14;0.33;0.33;0.00
68698;PMS7003;55680;48.850;2.310;2022-10-12T06:32:39;0.67;0.67;0.00
68698;PMS7003;55680;48.850;2.310;2022-10-12T06:35:05;6.00;6.00;5.25
68698;PMS7003;55680;48.850;2.310;2022-10-12T06:37:30;8.75;6.75;6.00
68698;PMS7003;55680;48.850;2.310;2022-10-12T06:39:55;0.00;0.00;0.00
68698;PMS7003;55680;48.850;2.310;2022-10-12T06:42:21;0.75;0.75;0.00
68698;PMS7003;55680;48.850;2.310;2022-10-12T06:44:47;0.25;0.25;0.00
68698;PMS7003;55680;48.850;2.310;2022-10-12T06:47:12;1.00;1.00;0.00
68698;PMS7003;55680;48.850;2.310;2022-10-12T06:49:37;2.33;2.33;1.00
68698;PMS7003;55680;48.850;2.310;2022-10-12T06:52:02;0.25;0.25;0.00
68698;PMS7003;55680;48.850;2.310;2022-10-12T06:54:28;3.00;3.00;1.00
68698;PMS7003;55680;48.850;2.310;2022-10-12T06:56:53;1.00;1.00;1.00
68698;PMS7003;55680;48.850;2.310;2022-10-12T06:59:19;0.00;0.00;0.00
68698;PMS7003;55680;48.850;2.310;2022-10-12T07:01:46;0.25;0.25;0.25
68698;PMS7003;55680;48.850;2.310;2022-10-12T07:04:11;0.00;0.00;0.00
68698;PMS7003;55680;48.850;2.310;2022-10-12T07:06:37;3.00;1.00;0.00
68698;PMS7003;55680;48.850;2.310;2022-10-12T07:09:02;1.00;1.00;0.00
68698;PMS7003;55680;48.850;2.310;2022-10-12T07:11:27;0.75;0.75;0.25
68698;PMS7003;55680;48.850;2.310;2022-10-12T07:13:52;1.00;1.00;0.67
68698;PMS7003;55680;48.850;2.310;2022-10-12T07:16:17;3.00;0.67;0.00
68698;PMS7003;55680;48.850;2.310;2022-10-12T07:18:43;1.50;0.75;0.50
68698;PMS7003;55680;48.850;2.310;2022-10-12T07:21:08;1.00;1.00;0.00
68698;PMS7003;55680;48.850;2.310;2022-10-12T07:23:33;4.00;1.67;0.33
68698;PMS7003;55680;48.850;2.310;2022-10-12T07:25:59;0.75;0.00;0.00
68698;PMS7003;55680;48.850;2.310;2022-10-12T07:28:24;3.00;0.50;0.25
68698;PMS7003;55680;48.850;2.310;2022-10-12T07:30:50;3.50;1.00;1.00
68698;PMS7003;55680;48.850;2.310;2022-10-12T07:33:15;3.00;3.00;0.00
68698;PMS7003;55680;48.850;2.310;2022-10-12T07:35:41;0.67;0.67;0.00
68698;PMS7003;55680;48.850;2.310;2022-10-12T07:38:06;11.00;9.67;7.33
68698;PMS7003;55680;48.850;2.310;2022-10-12T07:40:31;3.67;2.33;1.00
68698;PMS7003;55680;48.850;2.310;2022-10-12T07:42:57;0.00;0.00;0.00
68698;PMS7003;55680;48.850;2.310;2022-10-12T07:45:22;1.00;1.00;1.00
68698;PMS7003;55680;48.850;2.310;2022-10-12T07:47:48;6.00;4.00;1.50
68698;PMS7003;55680;48.850;2.310;2022-10-12T07:50:13;9.00;3.00;3.00
68698;PMS7003;55680;48.850;2.310;2022-10-12T07:52:38;1.50;1.50;1.00
68698;PMS7003;55680;48.850;2.310;2022-10-12T07:55:04;3.75;1.50;1.00
68698;PMS7003;55680;48.850;2.310;2022-10-12T07:57:29;7.00;3.75;3.00
68698;PMS7003;55680;48.850;2.310;2022-10-12T07:59:54;7.00;4.00;4.00
68698;PMS7003;55680;48.850;2.310;2022-10-12T08:02:20;8.00;7.00;4.75
68698;PMS7003;55680;48.850;2.310;2022-10-12T08:04:45;15.50;10.50;8.50
68698;PMS7003;55680;48.850;2.310;2022-10-12T08:07:11;7.67;5.67;5.00
68698;PMS7003;55680;48.850;2.310;2022-10-12T08:09:36;11.25;9.00;5.75
68698;PMS7003;55680;48.850;2.310;2022-10-12T08:12:01;18.00;17.00;11.00
68698;PMS7003;55680;48.850;2.310;2022-10-12T08:14:27;12.75;10.75;8.50
68698;PMS7003;55680;48.850;2.310;2022-10-12T08:16:52;11.00;10.50;8.00
68698;PMS7003;55680;48.850;2.310;2022-10-12T08:19:17;12.25;10.75;8.00
68698;PMS7003;55680;48.850;2.310;2022-10-12T08:21:43;14.25;11.50;8.00
68698;PMS7003;55680;48.850;2.310;2022-10-12T08:24:10;17.25;15.25;10.00
68698;PMS7003;55680;48.850;2.310;2022-10-12T08:26:35;12.75;12.75;10.00
68698;PMS7003;55680;48.850;2.310;2022-10-12T08:29:01;13.25;13.00;11.25
68698;PMS7003;55680;48.850;2.310;2022-10-12T08:31:27;15.50;11.50;8.50
68698;PMS7003;55680;48.850;2.310;2022-10-12T08:33:52;19.67;16.00;12.00
68698;PMS7003;55680;48.850;2.310;2022-10-12T08:36:17;11.25;8.75;6.75
68698;PMS7003;55680;48.850;2.310;2022-10-12T08:38:43;14.33;11.33;8.33
68698;PMS7003;55680;48.850;2.310;2022-10-12T08:46:54;18.00;16.00;12.00
68698;PMS7003;55680;48.850;2.310;2022-10-12T08:49:21;13.75;12.25;10.50
68698;PMS7003;55680;48.850;2.310;2022-10-12T08:51:49;11.75;11.75;9.75
68698;PMS7003;55680;48.850;2.310;2022-10-12T08:54:16;14.00;14.00;10.25
68698;PMS7003;55680;48.850;2.310;2022-10-12T08:56:43;19.75;13.50;11.00
68698;PMS7003;55680;48.850;2.310;2022-10-12T08:59:13;13.50;13.50;9.75
68698;PMS7003;55680;48.850;2.310;2022-10-12T09:01:47;14.00;14.00;11.00
68698;PMS7003;55680;48.850;2.310;2022-10-12T09:06:45;17.00;15.50;11.00
68698;PMS7003;55680;48.850;2.310;2022-10-12T09:11:55;14.50;14.25;10.50
68698;PMS7003;55680;48.850;2.310;2022-10-12T09:14:25;13.00;13.00;9.75
68698;PMS7003;55680;48.850;2.310;2022-10-12T09:16:51;17.50;14.00;10.25
68698;PMS7003;55680;48.850;2.310;2022-10-12T09:19:20;16.50;13.50;10.50
68698;PMS7003;55680;48.850;2.310;2022-10-12T09:21:47;12.50;12.00;9.25
68698;PMS7003;55680;48.850;2.310;2022-10-12T09:24:13;14.50;13.50;9.50
68698;PMS7003;55680;48.850;2.310;2022-10-12T09:26:41;15.00;15.00;10.50
68698;PMS7003;55680;48.850;2.310;2022-10-12T09:29:21;17.50;13.00;8.75
68698;PMS7003;55680;48.850;2.310;2022-10-12T09:34:27;16.25;15.00;11.25
68698;PMS7003;55680;48.850;2.310;2022-10-12T09:36:52;12.50;11.25;9.00
68698;PMS7003;55680;48.850;2.310;2022-10-12T09:39:20;15.50;11.75;9.00
68698;PMS7003;55680;48.850;2.310;2022-10-12T09:41:48;17.00;15.00;12.00
68698;PMS7003;55680;48.850;2.310;2022-10-12T09:46:54;14.25;13.50;11.50
68698;PMS7003;55680;48.850;2.310;2022-10-12T09:49:21;15.25;11.50;7.50
68698;PMS7003;55680;48.850;2.310;2022-10-12T09:51:46;16.75;15.50;11.00
68698;PMS7003;55680;48.850;2.310;2022-10-12T09:54:16;13.00;12.00;9.25
68698;PMS7003;55680;48.850;2.310;2022-10-12T09:56:45;12.75;12.75;10.50
68698;PMS7003;55680;48.850;2.310;2022-10-12T10:01:42;20.50;17.75;12.00
68698;PMS7003;55680;48.850;2.310;2022-10-12T10:04:23;12.50;12.00;8.00
68698;PMS7003;55680;48.850;2.310;2022-10-12T10:06:49;19.50;17.75;12.75
68698;PMS7003;55680;48.850;2.310;2022-10-12T10:09:31;17.50;13.50;11.75
68698;PMS7003;55680;48.850;2.310;2022-10-12T10:11:56;16.75;12.75;9.25
68698;PMS7003;55680;48.850;2.310;2022-10-12T10:14:23;14.75;14.25;9.75
68698;PMS7003;55680;48.850;2.310;2022-10-12T10:16:48;15.75;15.75;9.75
68698;PMS7003;55680;48.850;2.310;2022-10-12T10:19:18;13.75;13.75;9.25
68698;PMS7003;55680;48.850;2.310;2022-10-12T10:21:45;20.50;17.75;10.75
68698;PMS7003;55680;48.850;2.310;2022-10-12T10:27:01;11.25;10.75;7.75
68698;PMS7003;55680;48.850;2.310;2022-10-12T10:32:05;12.33;8.67;6.67
68698;PMS7003;55680;48.850;2.310;2022-10-12T10:34:35;14.50;13.25;8.75
68698;PMS7003;55680;48.850;2.310;2022-10-12T10:37:01;13.33;11.00;7.33
68698;PMS7003;55680;48.850;2.310;2022-10-12T10:39:43;10.75;9.75;7.00
68698;PMS7003;55680;48.850;2.310;2022-10-12T10:42:20;13.50;12.00;9.00
68698;PMS7003;55680;48.850;2.310;2022-10-12T10:44:48;15.00;11.75;8.25
68698;PMS7003;55680;48.850;2.310;2022-10-12T10:47:14;6.75;6.75;6.25
68698;PMS7003;55680;48.850;2.310;2022-10-12T10:49:50;15.00;9.25;7.00
68698;PMS7003;55680;48.850;2.310;2022-10-12T10:55:40;12.50;10.00;6.00
68698;PMS7003;55680;48.850;2.310;2022-10-12T10:57:39;16.00;12.00;6.00
68698;PMS7003;55680;48.850;2.310;2022-10-12T11:00:09;12.75;11.50;6.25
68698;PMS7003;55680;48.850;2.310;2022-10-12T11:05:18;7.25;7.25;6.25
68698;PMS7003;55680;48.850;2.310;2022-10-12T11:07:47;8.00;8.00;6.00
68698;PMS7003;55680;48.850;2.310;2022-10-12T11:10:15;12.00;12.00;8.00
68698;PMS7003;55680;48.850;2.310;2022-10-12T11:12:42;10.00;10.00;8.00
68698;PMS7003;55680;48.850;2.310;2022-10-12T11:15:21;12.00;9.00;6.00
68698;PMS7003;55680;48.850;2.310;2022-10-12T11:17:49;10.50;8.50;6.75
68698;PMS7003;55680;48.850;2.310;2022-10-12T11:22:52;6.50;6.00;4.00
68698;PMS7003;55680;48.850;2.310;2022-10-12T11:25:29;7.50;5.75;4.25
68698;PMS7003;55680;48.850;2.310;2022-10-12T11:27:55;7.00;7.00;5.00
68698;PMS7003;55680;48.850;2.310;2022-10-12T11:30:22;8.00;6.50;4.25
68698;PMS7003;55680;48.850;2.310;2022-10-12T11:32:52;7.75;4.75;3.75
68698;PMS7003;55680;48.850;2.310;2022-10-12T11:37:50;9.00;6.75;5.00
68698;PMS7003;55680;48.850;2.310;2022-10-12T11:40:22;9.00;9.00;5.00
68698;PMS7003;55680;48.850;2.310;2022-10-12T11:42:49;8.00;8.00;6.00
68698;PMS7003;55680;48.850;2.310;2022-10-12T11:45:18;6.00;6.00;5.25
68698;PMS7003;55680;48.850;2.310;2022-10-12T11:47:44;5.00;4.50;3.25
68698;PMS7003;55680;48.850;2.310;2022-10-12T11:50:29;6.00;5.50;4.50
68698;PMS7003;55680;48.850;2.310;2022-10-12T11:52:56;13.25;8.00;6.00
68698;PMS7003;55680;48.850;2.310;2022-10-12T11:57:52;7.75;7.75;5.00
68698;PMS7003;55680;48.850;2.310;2022-10-12T12:00:21;8.25;5.75;4.25
68698;PMS7003;55680;48.850;2.310;2022-10-12T12:02:49;10.50;10.25;7.75
68698;PMS7003;55680;48.850;2.310;2022-10-12T12:05:17;12.50;8.75;7.25
68698;PMS7003;55680;48.850;2.310;2022-10-12T12:07:46;9.67;9.67;7.00
68698;PMS7003;55680;48.850;2.310;2022-10-12T12:15:35;11.50;7.75;5.00
68698;PMS7003;55680;48.850;2.310;2022-10-12T12:18:14;13.00;8.50;5.00
68698;PMS7003;55680;48.850;2.310;2022-10-12T12:23:21;10.75;9.50;6.75
68698;PMS7003;55680;48.850;2.310;2022-10-12T12:28:32;9.00;7.50;5.25
68698;PMS7003;55680;48.850;2.310;2022-10-12T12:30:59;8.50;8.50;6.75
68698;PMS7003;55680;48.850;2.310;2022-10-12T12:33:34;11.00;9.00;7.00
68698;PMS7003;55680;48.850;2.310;2022-10-12T12:36:04;7.75;5.75;5.50
68698;PMS7003;55680;48.850;2.310;2022-10-12T12:38:31;9.75;8.75;6.00
68698;PMS7003;55680;48.850;2.310;2022-10-12T12:41:08;7.50;6.00;4.50
68698;PMS7003;55680;48.850;2.310;2022-10-12T12:43:36;7.00;7.00;5.00
68698;PMS7003;55680;48.850;2.310;2022-10-12T12:46:03;7.00;6.75;5.00
68698;PMS7003;55680;48.850;2.310;2022-10-12T12:51:04;11.25;7.00;6.00
68698;PMS7003;55680;48.850;2.310;2022-10-12T12:53:30;11.75;6.75;4.50
68698;PMS7003;55680;48.850;2.310;2022-10-12T13:08:50;6.75;5.75;4.00
68698;PMS7003;55680;48.850;2.310;2022-10-12T13:19:13;5.50;4.00;3.00
68698;PMS7003;55680;48.850;2.310;2022-10-12T13:21:39;4.00;3.75;2.75
68698;PMS7003;55680;48.850;2.310;2022-10-12T13:24:21;3.00;3.00;2.00
68698;PMS7003;55680;48.850;2.310;2022-10-12T13:26:48;4.00;3.00;2.00
68698;PMS7003;55680;48.850;2.310;2022-10-12T13:29:20;6.00;4.50;3.75
68698;PMS7003;55680;48.850;2.310;2022-10-12T13:31:46;5.00;3.00;3.00
68698;PMS7003;55680;48.850;2.310;2022-10-12T13:34:15;5.75;5.25;3.25
68698;PMS7003;55680;48.850;2.310;2022-10-12T13:36:45;4.25;3.25;3.00
68698;PMS7003;55680;48.850;2.310;2022-10-12T13:39:14;3.25;3.25;2.75
68698;PMS7003;55680;48.850;2.310;2022-10-12T13:41:40;6.00;3.00;2.25
68698;PMS7003;55680;48.850;2.310;2022-10-12T13:44:05;5.33;4.00;4.00
68698;PMS7003;55680;48.850;2.310;2022-10-12T13:51:40;5.75;5.75;4.00
68698;PMS7003;55680;48.850;2.310;2022-10-12T13:54:13;4.00;4.00;3.00
68698;PMS7003;55680;48.850;2.310;2022-10-12T13:56:38;2.00;2.00;2.00
68698;PMS7003;55680;48.850;2.310;2022-10-12T13:59:04;4.75;2.75;2.25
68698;PMS7003;55680;48.850;2.310;2022-10-12T14:01:29;6.00;6.00;4.00
68698;PMS7003;55680;48.850;2.310;2022-10-12T14:04:01;6.67;3.00;1.33
68698;PMS7003;55680;48.850;2.310;2022-10-12T14:06:27;4.00;4.00;3.00
68698;PMS7003;55680;48.850;2.310;2022-10-12T14:08:55;4.00;4.00;3.25
68698;PMS7003;55680;48.850;2.310;2022-10-12T14:11:21;4.25;3.00;3.00
68698;PMS7003;55680;48.850;2.310;2022-10-12T14:13:46;6.50;6.50;6.00
68698;PMS7003;55680;48.850;2.310;2022-10-12T14:16:12;3.75;3.75;3.00
68698;PMS7003;55680;48.850;2.310;2022-10-12T14:21:14;8.00;6.67;4.67
68698;PMS7003;55680;48.850;2.310;2022-10-12T14:23:41;4.50;4.50;2.75
68698;PMS7003;55680;48.850;2.310;2022-10-12T14:28:42;4.25;4.25;3.00
68698;PMS7003;55680;48.850;2.310;2022-10-12T14:31:07;4.75;4.75;3.00
68698;PMS7003;55680;48.850;2.310;2022-10-12T14:33:32;4.00;4.00;3.33
68698;PMS7003;55680;48.850;2.310;2022-10-12T14:38:45;5.00;5.00;4.00
68698;PMS7003;55680;48.850;2.310;2022-10-12T14:44:05;4.25;4.25;3.50
68698;PMS7003;55680;48.850;2.310;2022-10-12T14:46:30;4.25;2.25;2.00
68698;PMS7003;55680;48.850;2.310;2022-10-12T14:48:56;4.00;4.00;3.00
68698;PMS7003;55680;48.850;2.310;2022-10-12T14:51:21;3.75;3.75;2.75
68698;PMS7003;55680;48.850;2.310;2022-10-12T14:53:56;5.67;5.67;3.67
68698;PMS7003;55680;48.850;2.310;2022-10-12T14:56:21;6.00;5.00;4.00
68698;PMS7003;55680;48.850;2.310;2022-10-12T14:58:46;5.00;3.67;2.67
68698;PMS7003;55680;48.850;2.310;2022-10-12T15:01:11;3.67;3.00;2.67
68698;PMS7003;55680;48.850;2.310;2022-10-12T15:03:37;5.00;3.75;2.25
68698;PMS7003;55680;48.850;2.310;2022-10-12T15:06:03;4.25;4.25;2.50
68698;PMS7003;55680;48.850;2.310;2022-10-12T15:08:28;3.50;3.00;2.00
68698;PMS7003;55680;48.850;2.310;2022-10-12T15:10:54;6.75;5.00;3.75
68698;PMS7003;55680;48.850;2.310;2022-10-12T15:13:19;6.33;4.67;3.67
68698;PMS7003;55680;48.850;2.310;2022-10-12T15:15:44;3.33;3.00;3.00
68698;PMS7003;55680;48.850;2.310;2022-10-12T15:18:10;4.00;4.00;3.00
68698;PMS7003;55680;48.850;2.310;2022-10-12T15:20:35;3.00;3.00;2.25
68698;PMS7003;55680;48.850;2.310;2022-10-12T15:23:01;5.75;4.50;3.25
68698;PMS7003;55680;48.850;2.310;2022-10-12T15:25:49;6.25;4.25;3.00
68698;PMS7003;55680;48.850;2.310;2022-10-12T15:28:12;3.25;3.25;1.25
68698;PMS7003;55680;48.850;2.310;2022-10-12T15:30:37;4.00;4.00;3.00
68698;PMS7003;55680;48.850;2.310;2022-10-12T15:33:03;6.00;5.00;3.50
68698;PMS7003;55680;48.850;2.310;2022-10-12T15:35:29;5.33;4.00;2.67
68698;PMS7003;55680;48.850;2.310;2022-10-12T15:37:55;4.75;3.25;2.50
68698;PMS7003;55680;48.850;2.310;2022-10-12T15:40:20;7.50;3.50;3.25
68698;PMS7003;55680;48.850;2.310;2022-10-12T15:42:46;3.67;3.00;1.00
68698;PMS7003;55680;48.850;2.310;2022-10-12T15:45:15;5.25;2.75;1.50
68698;PMS7003;55680;48.850;2.310;2022-10-12T15:47:41;7.00;3.75;2.50
68698;PMS7003;55680;48.850;2.310;2022-10-12T15:50:06;1.00;1.00;1.00
68698;PMS7003;55680;48.850;2.310;2022-10-12T15:52:32;3.25;3.25;2.75
68698;PMS7003;55680;48.850;2.310;2022-10-12T15:54:57;2.67;2.67;2.00
68698;PMS7003;55680;48.850;2.310;2022-10-12T15:57:22;2.00;2.00;2.00